• Join FlightAware (Why Join?)
  • Login
  • US Flag 
02:18AM EDT


 

Airport Tracker/Info


-or-


 

Live Flight TrackerFlight Track Log ✈ CCA1119 ✈ 12-Nov-2013 ✈ ZBAA / PEK - ZBDT / DAT

Flight Track Log - Related Links

Times and Time Zones

All times are in EST time to prevent confusion due to time zone crossing. See the CCA1119 flight status page for this flight to view local times or setup timezone preferences in your user account.

Time Position Orientation Groundspeed Altitude Reporting Facility
EST Latitude Longitude Course Direction KTS MPH feet Rate Location/Type
06:20PM 40.1520 116.5860 355° North 175 201 3,200  Level FlightAware
06:21PM 40.2110 116.5700 348° North 248 285 5,900 2,640 Climbing FlightAware
06:22PM 40.2430 116.5570 343° North 244 281 6,600 720 Climbing FlightAware
06:22PM 40.2660 116.5470 342° North 244 281 6,600 840 Level FlightAware
06:25PM 40.2583 116.4059 266° West  Level Estimated
06:25PM 40.3380 116.3800 266° West 289 333 9,500  Level FlightAware
06:25PM 40.3240 116.3540 235° Southwest 291 335 9,600 1,560 Climbing FlightAware
06:26PM 40.2820 116.2790 234° Southwest 327 376 11,300 2,280 Climbing FlightAware
06:27PM 40.2280 116.1850 233° Southwest 337 388 13,800 1,500 Climbing FlightAware
06:28PM 40.1940 116.1240 234° Southwest 349 402 13,800  Level FlightAware
06:28PM 40.1510 116.0480 234° Southwest 338 389 13,800  Level FlightAware
06:29PM 40.1440 116.0360 233° Southwest 338 389 13,800  Level FlightAware
06:30PM 40.0870 115.9350 234° Southwest 338 389 13,800  Level FlightAware
06:30PM 40.0440 115.8580 234° Southwest 335 386 13,800  Level FlightAware
06:31PM 40.0240 115.8140 239° Southwest 338 389 13,800  Level FlightAware
06:31PM 40.0210 115.7830 263° West 339 390 13,800  Level FlightAware
06:32PM 40.0380 115.7010 285° West 334 384 13,800  Level FlightAware
06:33PM 40.0600 115.6020 286° West 331 381 13,800  Level FlightAware
06:33PM 40.0820 115.5110 288° West 336 387 13,800  Level FlightAware
06:34PM 40.0970 115.4460 287° West 336 387 13,800  Level FlightAware
06:35PM 40.1210 115.3400 287° West 333 383 13,800  Level FlightAware
06:36PM 40.1370 115.2720 287° West 331 381 13,800  Level FlightAware
06:36PM 40.1570 115.1850 287° West 330 380 13,800  Level FlightAware
06:37PM 40.1750 115.1070 287° West 330 380 13,800  Level FlightAware
06:40PM 40.1663 114.9712 265° West  Level Estimated
06:41PM 40.1624 114.9118 265° West  Level Estimated
06:42PM 40.1586 114.8523 265° West  Level Estimated
06:43PM 40.1546 114.7929 265° West  Level Estimated
06:44PM 40.1507 114.7335 265° West  Level Estimated
06:45PM 40.1467 114.6740 265° West  Level Estimated
06:46PM 40.1427 114.6146 265° West  Level Estimated
06:47PM 40.1386 114.5552 265° West  Level Estimated
06:48PM 40.1346 114.4958 265° West  Level Estimated
06:49PM 40.1305 114.4364 265° West  Level Estimated
06:50PM 40.1263 114.3770 265° West  Level Estimated
06:51PM 40.1222 114.3176 265° West  Level Estimated
06:52PM 40.1180 114.2582 265° West  Level Estimated
06:53PM 40.1137 114.1989 265° West  Level Estimated
06:54PM 40.1095 114.1395 265° West  Level Estimated
06:55PM 40.1052 114.0802 265° West  Level Estimated
06:56PM 40.1008 114.0208 265° West  Level Estimated
06:57PM 40.0965 113.9615 265° West  Level Estimated
06:58PM 40.0921 113.9021 265° West  Level Estimated
06:59PM 40.0877 113.8428 264° West  Level Estimated
07:00PM 40.0833 113.7835 264° West  Level Estimated
07:01PM 40.0788 113.7242 264° West  Level Estimated
07:02PM 40.0743 113.6649 264° West  Level Estimated
07:03PM 40.0698 113.6056 264° West  Level Estimated
07:04PM 40.0652 113.5463 264° West  Level Estimated
07:05PM 40.0606 113.4870 264° West  Level Estimated
07:06PM 40.0603 113.4822 264° West  Level Estimated
07:07PM 40.0603 113.4822 143° Southeast  Level Estimated
07:08PM 40.0603 113.4822 143° Southeast  Level Estimated
07:09PM 40.0603 113.4822 143° Southeast  Level Estimated
07:10PM 40.0603 113.4822 143° Southeast  Level Estimated
07:11PM 40.0603 113.4822 143° Southeast  Level Estimated
07:12PM 40.0603 113.4822 143° Southeast  Level Estimated
07:13PM 40.0603 113.4822 143° Southeast  Level Estimated
07:14PM 40.0603 113.4822 143° Southeast  Level Estimated
07:15PM 40.0603 113.4822 143° Southeast  Level Estimated
07:16PM 40.0603 113.4822 143° Southeast  Level Estimated
07:17PM 40.0603 113.4822 143° Southeast  Level Estimated
07:18PM 40.0603 113.4822 143° Southeast  Level Estimated
07:19PM 40.0603 113.4822 143° Southeast  Level Estimated
07:20PM 40.0603 113.4822 143° Southeast  Level Estimated
07:21PM 40.0603 113.4822 143° Southeast  Level Estimated
07:22PM 40.0603 113.4822 143° Southeast  Level Estimated
07:23PM 40.0603 113.4822 143° Southeast  Level Estimated
07:24PM 40.0603 113.4822 143° Southeast  Level Estimated
07:25PM 40.0603 113.4822 143° Southeast  Level Estimated
07:26PM 40.0603 113.4822 143° Southeast  Level Estimated